Date,TemperatureHighF,TemperatureAvgF,TemperatureLowF,DewpointHighF,DewpointAvgF,DewpointLowF,HumidityHigh,HumidityAvg,HumidityLow,PressureMaxIn,PressureMinIn,WindSpeedMaxMPH,WindSpeedAvgMPH,GustSpeedMaxMPH,PrecipitationSumIn
2013-1-1,45.0,36.7,27.7,38.5,31.2,25.9,93,81,62,28.76,28.61,14,2,14,0.00
2013-1-2,43.3,39.2,32.5,39.1,33.4,29.9,91,80,71,29.20,28.70,14,6,14,0.00
2013-1-3,43.5,39.5,35.4,39.9,35.0,30.9,88,84,76,29.24,29.12,20,11,20,0.00
2013-1-4,50.0,46.5,43.7,46.7,42.9,39.5,95,87,74,29.24,29.00,15,7,15,0.43
2013-1-5,49.8,46.5,41.5,46.5,42.2,39.6,97,85,75,29.18,29.00,17,6,17,0.21
2013-1-6,45.1,42.7,40.8,42.2,40.8,39.2,98,93,84,29.15,28.94,16,4,16,0.09
2013-1-7,45.7,41.2,38.5,42.2,39.6,37.9,98,94,86,29.18,29.00,12,2,12,0.14
2013-1-8,41.9,39.6,36.9,41.0,38.8,36.3,99,97,94,29.15,28.97,7,1,7,0.05
2013-1-9,42.8,41.1,39.4,40.7,39.0,36.7,96,93,87,29.03,28.70,10,4,10,0.00
2013-1-10,40.1,38.1,36.3,37.2,34.4,32.1,95,87,78,28.70,28.53,14,8,14,0.06
2013-1-11,36.7,29.9,24.6,33.5,24.6,19.0,94,80,70,28.85,28.53,17,6,17,0.01
2013-1-12,31.1,25.1,16.3,23.4,20.0,14.4,93,81,66,28.88,28.79,12,2,12,0.00
2013-1-13,29.7,25.4,18.1,24.6,21.3,16.2,93,84,73,28.88,28.82,12,3,12,0.00
2013-1-14,29.8,26.5,21.9,26.9,24.3,20.7,95,91,84,28.85,28.67,8,2,8,0.00
2013-1-15,28.2,23.5,13.8,25.2,21.6,12.2,95,93,84,28.73,28.56,0,0,0,0.00
2013-1-16,29.7,27.4,26.1,27.0,25.5,24.6,95,92,86,28.58,28.53,0,0,0,0.00
2013-1-17,28.6,26.9,25.3,25.6,24.1,22.0,93,89,84,28.70,28.56,13,2,13,0.00
2013-1-18,25.3,22.8,21.2,23.6,19.8,18.0,93,88,84,28.70,28.50,7,0,7,0.00
2013-1-19,23.5,21.1,19.0,19.4,17.7,15.5,92,87,79,28.50,28.35,7,2,7,0.00
2013-1-20,27.1,24.0,21.6,25.9,21.5,18.0,95,90,86,28.38,28.29,10,6,10,0.00
2013-1-21,28.2,26.2,23.4,26.7,24.8,21.6,97,94,91,28.41,28.26,7,2,7,0.00
2013-1-22,25.0,22.4,20.3,21.6,19.0,17.3,93,87,81,28.58,28.41,7,1,7,0.00
2013-1-23,25.5,23.0,21.0,22.7,20.2,17.9,91,89,87,28.61,28.56,7,3,7,0.00
2013-1-24,25.0,23.4,21.0,23.1,20.8,17.9,94,90,86,28.79,28.58,9,3,9,0.00
2013-1-25,22.6,18.4,6.6,18.5,15.2,4.3,91,87,82,28.94,28.79,8,3,8,0.00
2013-1-26,18.0,12.8,4.1,15.3,10.2,1.6,92,89,84,28.88,28.79,8,1,8,0.00
2013-1-27,35.1,28.3,18.0,31.3,25.0,15.0,96,88,80,28.79,28.56,10,2,10,0.00
2013-1-28,39.9,34.8,31.6,34.9,32.4,30.7,97,91,80,28.88,28.56,8,2,8,0.09
2013-1-29,42.3,39.3,32.5,39.9,36.4,31.2,96,89,79,28.88,28.70,16,9,16,0.55
2013-1-30,55.2,48.5,41.2,49.3,45.1,39.6,95,88,79,28.73,28.53,21,11,21,0.29
2013-1-31,48.2,44.0,41.0,41.6,35.6,32.1,89,73,58,28.82,28.61,20,12,20,0.01
2013-2-1,45.3,40.8,35.8,37.5,36.1,33.7,94,84,71,28.67,28.11,15,5,15,0.13
2013-2-2,40.5,37.5,30.2,38.8,32.9,22.1,97,84,68,28.58,28.02,18,6,18,0.09
2013-2-3,37.6,31.4,21.4,31.1,25.2,19.4,93,78,64,28.76,28.56,16,5,16,0.00
2013-2-4,41.2,36.6,32.7,37.9,33.9,30.3,94,90,86,28.64,28.56,18,9,19,0.12
2013-2-5,46.8,39.8,34.9,37.6,34.3,29.8,92,81,66,28.64,28.32,21,7,21,0.01
2013-2-6,39.9,32.4,23.5,31.2,25.9,21.3,92,78,55,28.41,28.32,15,2,15,0.00
2013-2-7,38.1,30.6,24.3,29.9,27.1,21.7,94,87,71,28.64,28.41,12,2,12,0.01
2013-2-8,36.3,28.8,22.6,27.4,24.7,21.2,95,85,61,28.73,28.61,9,1,10,0.01
2013-2-9,31.8,28.7,24.3,27.1,24.5,22.2,94,84,72,28.88,28.73,9,2,9,0.00
2013-2-10,32.5,28.0,21.2,25.7,21.7,18.7,93,78,62,28.85,28.70,9,2,9,0.00
2013-2-11,28.9,26.4,18.1,23.3,20.7,16.0,92,79,69,28.70,28.56,15,6,15,0.00
2013-2-12,29.3,28.4,27.3,27.5,25.5,23.3,95,89,81,28.73,28.53,14,6,14,0.00
2013-2-13,32.4,29.3,27.3,27.7,25.9,24.6,95,87,76,29.09,28.73,8,2,8,0.01
2013-2-14,32.0,29.9,28.0,27.8,26.5,24.6,90,87,82,29.12,28.91,6,2,6,0.01
2013-2-15,35.2,31.9,30.0,31.8,29.3,27.6,96,90,81,28.97,28.85,5,0,5,0.01
2013-2-16,39.2,33.2,28.8,32.7,30.6,28.0,97,90,76,29.06,28.97,5,0,5,0.03
2013-2-17,36.3,33.3,31.5,32.8,30.9,29.6,98,91,79,29.06,29.00,7,1,7,0.05
2013-2-18,36.0,32.7,30.7,30.8,29.6,28.2,96,89,75,29.03,28.88,5,0,5,0.00
2013-2-19,34.2,32.2,29.1,32.3,29.0,26.3,95,88,77,28.91,28.64,16,6,16,0.01
2013-2-20,33.3,28.6,21.2,27.5,25.2,19.5,95,87,72,28.94,28.76,12,4,12,0.00
2013-2-21,32.0,24.5,20.3,25.5,21.0,18.8,95,86,69,28.94,28.85,10,2,10,0.01
2013-2-22,25.3,22.9,20.3,22.8,19.6,16.4,93,87,79,28.88,28.64,15,8,15,0.00
2013-2-23,30.4,26.2,23.7,27.4,24.1,21.0,96,92,88,28.67,28.56,10,4,10,0.00
2013-2-24,39.2,31.8,25.3,34.3,29.5,24.4,97,91,76,28.76,28.56,6,1,6,0.01
2013-2-25,41.5,37.1,34.9,41.0,35.9,34.3,99,96,86,29.06,28.73,5,2,5,0.33
2013-2-26,38.8,35.8,32.7,37.2,34.3,31.6,98,94,89,29.18,29.06,12,5,12,0.00
2013-2-27,37.0,34.1,32.4,33.9,32.5,31.6,97,94,88,29.24,29.18,9,3,9,0.00
2013-2-28,39.4,35.6,33.3,34.6,32.5,31.5,96,89,75,29.20,29.00,5,1,5,0.00
2013-3-1,37.9,34.7,32.7,32.2,30.3,27.6,91,84,74,29.06,28.94,12,4,12,0.00
2013-3-2,44.4,32.9,24.3,30.6,26.4,22.0,95,78,55,29.09,28.94,9,2,9,0.00
2013-3-3,40.3,30.8,21.2,30.9,25.8,19.7,94,83,66,29.03,28.91,13,3,13,0.00
2013-3-4,44.6,34.7,26.6,30.8,27.4,23.8,94,76,52,29.09,29.00,9,2,9,0.00
2013-3-5,50.2,36.6,26.4,34.6,28.8,22.3,88,74,53,29.00,28.70,10,3,10,0.00
2013-3-6,53.2,38.4,25.2,38.7,31.9,23.7,94,79,55,28.70,28.47,10,2,10,0.00
2013-3-7,49.1,40.7,31.8,43.2,37.5,30.0,95,88,78,28.50,28.41,7,1,7,0.00
2013-3-8,47.3,44.0,40.6,44.7,42.5,39.3,98,95,90,28.50,28.44,9,3,9,0.00
2013-3-9,42.8,40.7,38.5,41.8,40.0,38.0,98,97,96,28.50,28.41,6,1,6,0.08
2013-3-10,56.1,45.5,38.5,46.2,41.1,38.0,99,86,57,28.41,28.26,13,3,13,0.01
2013-3-11,44.2,31.1,26.4,41.5,27.9,23.0,95,88,83,28.53,28.26,12,5,12,0.06
2013-3-12,29.8,27.1,25.3,26.2,24.0,22.5,92,88,84,28.50,28.32,10,6,10,0.00
2013-3-13,28.9,25.3,23.4,23.7,21.1,18.6,92,84,75,28.53,28.32,8,4,8,0.00
2013-3-14,31.8,25.6,19.0,19.7,17.6,16.0,90,72,55,28.61,28.53,16,5,16,0.01
2013-3-15,31.8,24.1,16.2,21.6,18.0,13.7,91,78,58,28.88,28.61,14,4,14,0.00
2013-3-16,38.7,26.0,13.5,22.5,16.8,11.3,92,71,40,28.94,28.82,10,2,10,0.02
2013-3-17,42.4,32.0,21.4,25.6,20.6,15.3,79,63,49,28.82,28.50,17,6,17,0.01
2013-3-18,42.1,33.3,27.1,33.1,27.8,22.7,95,81,64,28.50,28.08,12,5,12,0.01
2013-3-19,42.4,35.7,31.5,35.4,32.6,30.2,97,88,76,28.41,28.05,13,3,13,0.33
2013-3-20,51.4,40.8,31.3,38.9,34.8,29.4,95,80,59,28.61,28.41,12,3,12,0.10
2013-3-21,39.2,34.9,28.0,35.6,29.4,23.3,97,81,65,28.88,28.61,16,6,17,0.03
2013-3-22,31.3,29.0,24.4,25.6,23.5,21.7,90,80,70,28.94,28.88,12,5,12,0.00
2013-3-23,31.8,26.2,18.3,23.1,16.8,8.7,80,68,56,29.00,28.91,20,13,20,0.00
2013-3-24,34.7,24.1,16.0,15.7,10.6,7.3,71,57,36,29.00,28.85,21,15,21,0.00
2013-3-25,31.3,26.0,21.9,20.1,16.6,14.0,80,67,56,28.88,28.70,20,15,20,0.00
2013-3-26,32.5,28.2,25.0,16.8,13.1,9.8,68,53,39,28.73,28.64,21,14,21,0.00
2013-3-27,29.3,27.1,24.4,25.8,21.4,15.2,92,79,62,28.73,28.67,13,7,15,0.00
2013-3-28,39.4,32.7,27.5,29.4,27.2,24.6,91,81,66,28.70,28.56,12,4,12,0.01
2013-3-29,43.0,35.5,28.2,33.8,28.4,24.4,94,76,54,28.56,28.47,17,4,17,0.08
2013-3-30,44.4,35.2,26.6,31.1,27.5,23.7,90,74,54,28.56,28.47,16,4,16,0.00
2013-3-31,36.3,32.6,30.4,28.4,26.8,24.7,89,79,68,28.61,28.53,15,6,15,0.00
2013-4-1,36.7,31.6,24.8,28.0,25.5,22.5,91,78,61,28.70,28.58,13,3,13,0.00
2013-4-2,38.5,33.8,29.7,28.5,26.1,23.8,88,74,62,28.76,28.64,18,9,18,0.00
2013-4-3,37.4,33.3,30.9,27.4,26.3,24.0,84,75,65,28.79,28.73,15,6,15,0.00
2013-4-4,37.4,33.5,30.6,29.7,28.4,26.9,88,82,71,28.76,28.64,9,4,9,0.00
2013-4-5,37.9,34.8,32.4,32.0,30.7,29.3,90,85,78,28.67,28.56,12,6,12,0.00
2013-4-6,39.4,35.7,33.6,33.1,31.5,30.4,89,85,77,28.94,28.67,9,3,9,0.00
2013-4-7,41.5,35.5,27.1,32.7,29.7,23.9,90,80,59,28.97,28.85,10,3,10,0.00
2013-4-8,49.6,36.8,21.2,31.4,25.6,19.5,93,67,41,28.85,28.53,16,4,17,0.00
2013-4-9,51.8,42.4,36.1,40.6,35.3,28.3,92,76,61,28.56,28.47,10,2,10,0.03
2013-4-10,53.8,44.0,33.1,43.7,39.4,32.1,97,85,65,28.67,28.50,17,4,17,0.01
2013-4-11,58.1,48.5,34.9,49.3,42.1,33.3,95,80,62,28.67,28.47,13,2,13,0.00
2013-4-12,51.1,48.5,37.6,48.4,46.3,35.5,96,92,85,28.64,28.38,2,0,2,0.15
2013-4-13,59.4,49.8,36.9,44.7,40.2,34.8,94,71,46,29.09,28.64,21,7,21,0.01
2013-4-14,65.3,49.1,32.4,44.3,38.8,30.8,95,71,41,29.20,29.09,18,2,19,0.00
2013-4-15,70.7,56.4,40.6,45.0,40.4,36.0,88,58,33,29.15,28.97,13,4,13,0.00
2013-4-16,70.2,59.4,46.9,50.2,44.0,37.1,82,58,41,29.00,28.94,9,3,9,0.00
2013-4-17,72.0,59.6,48.0,53.9,49.4,45.9,95,72,46,29.06,29.00,9,2,9,0.00
2013-4-18,81.7,63.8,44.8,54.4,49.6,42.3,91,64,35,29.00,28.79,13,3,13,0.00
2013-4-19,61.9,55.7,47.5,53.9,45.1,37.1,95,70,45,29.06,28.88,12,3,12,0.22
2013-4-20,50.5,47.8,44.4,45.0,42.0,39.5,90,80,71,29.15,29.06,13,7,13,0.27
2013-4-21,67.6,54.0,42.6,52.5,45.2,38.6,87,73,55,29.09,28.76,14,7,14,0.00
2013-4-22,69.4,56.4,42.1,54.8,48.6,40.6,95,77,54,28.88,28.76,9,3,10,0.00
2013-4-23,66.9,56.5,47.1,49.7,45.5,41.3,93,69,45,29.06,28.88,17,4,18,0.00
2013-4-24,72.5,56.9,39.9,46.5,43.3,37.5,92,64,37,29.18,29.06,15,3,15,0.00
2013-4-25,76.6,60.4,42.8,51.2,46.7,40.6,93,64,35,29.12,28.97,15,2,15,0.00
2013-4-26,79.5,63.5,43.3,53.7,47.8,41.1,92,61,32,28.97,28.44,15,3,15,0.00
2013-4-27,64.8,56.6,47.3,55.1,50.9,45.1,92,81,67,28.58,28.44,17,6,17,0.28
2013-4-28,50.4,48.4,44.6,44.0,43.0,41.1,92,82,75,28.88,28.85,8,2,8,0.35
2013-4-29,56.1,50.8,43.5,49.2,46.5,41.6,94,86,76,28.97,28.79,8,2,8,0.00
2013-4-30,62.2,53.0,45.1,52.0,47.3,43.6,96,82,68,29.00,28.88,16,5,16,0.01
2013-5-1,56.7,51.0,46.8,50.2,47.0,44.6,93,86,78,29.06,28.91,12,6,12,0.00
2013-5-2,54.0,49.6,48.4,50.5,48.1,47.3,96,95,88,29.00,28.85,9,3,9,0.13
2013-5-3,54.7,51.8,45.9,50.8,48.8,44.5,96,89,81,28.85,28.79,12,5,12,0.17
2013-5-4,65.8,52.7,43.9,53.7,48.4,43.1,97,86,61,28.97,28.82,15,1,15,0.62
2013-5-5,65.5,55.2,45.7,55.2,50.7,44.9,98,86,60,29.09,28.94,14,3,14,0.05
2013-5-6,63.0,55.9,44.4,58.0,52.9,43.4,97,90,81,29.06,28.85,14,4,14,0.00
2013-5-7,68.4,59.5,54.3,62.9,57.0,52.9,96,92,76,28.85,28.82,8,2,8,0.18
2013-5-8,75.7,61.9,52.9,61.0,56.6,52.1,97,84,54,28.85,28.76,10,2,10,0.00
2013-5-9,76.5,62.6,48.9,63.0,56.2,48.1,97,81,49,28.82,28.73,7,1,7,0.01
2013-5-10,58.5,56.5,50.7,57.6,55.0,49.9,97,95,90,28.85,28.70,9,2,9,1.18
2013-5-11,57.6,53.4,48.7,53.5,50.3,48.2,98,90,73,28.88,28.79,6,1,6,0.02
2013-5-12,66.0,53.0,43.3,51.3,46.0,39.5,98,79,47,28.88,28.70,18,4,18,0.00
2013-5-13,44.1,40.6,38.5,39.4,37.9,36.8,94,90,84,28.91,28.88,2,0,3,0.00
2013-5-15,62.1,58.9,38.5,51.8,50.0,36.9,94,73,69,28.88,28.47,6,3,6,0.00
2013-5-16,75.2,64.7,50.0,54.9,51.6,46.9,90,64,43,28.47,28.32,18,7,18,0.00
2013-5-17,75.9,64.8,56.1,58.9,54.1,50.1,83,69,53,28.41,28.35,14,6,14,0.00
2013-5-18,69.8,59.1,52.2,55.4,51.8,48.3,94,78,48,28.70,28.41,18,5,18,0.58
2013-5-19,75.6,60.6,45.3,60.6,52.8,43.8,95,77,50,28.67,28.47,18,6,18,0.72
2013-5-20,65.3,55.1,48.0,49.6,47.3,44.9,92,77,51,28.76,28.61,17,7,17,0.00
2013-5-21,67.1,55.0,42.4,49.8,45.8,40.6,94,73,45,28.76,28.64,14,3,14,0.00
2013-5-22,62.2,50.7,42.4,50.7,45.8,39.4,96,84,61,28.67,28.53,16,4,16,0.06
2013-5-23,54.7,47.4,37.9,42.6,40.1,36.0,93,77,58,28.70,28.56,8,2,8,0.00
2013-5-24,53.6,45.5,35.2,45.3,40.6,34.0,96,84,69,28.70,28.56,12,4,12,0.00
2013-5-25,54.0,45.9,38.3,48.5,42.3,36.9,96,88,69,28.70,28.64,8,2,8,0.16
2013-5-26,47.3,44.1,40.8,43.7,41.6,39.8,97,91,83,28.64,28.50,20,7,20,0.34
2013-5-27,55.8,48.8,43.5,49.7,45.9,41.9,96,90,80,28.64,28.47,14,6,14,0.23
2013-5-28,66.7,54.4,40.6,51.8,46.9,39.6,97,78,51,28.67,28.41,12,4,12,0.00
2013-5-29,63.1,47.1,43.3,56.6,45.4,42.3,96,94,79,28.53,28.38,12,1,12,0.00
2013-5-30,51.4,49.9,48.2,50.4,48.6,47.1,97,95,92,28.53,28.29,12,5,12,1.37
2013-5-31,59.9,52.8,44.1,53.0,49.2,43.0,97,88,68,28.53,28.26,12,3,12,0.45
2013-6-1,53.1,47.3,41.0,51.7,46.4,40.2,98,97,94,28.58,28.53,10,2,11,0.53
2013-6-2,54.9,50.5,48.2,50.8,47.6,46.0,97,90,81,28.88,28.61,20,7,20,1.21
2013-6-3,49.3,48.1,46.9,48.5,47.0,45.9,97,96,93,28.97,28.88,9,3,9,0.95
2013-6-4,63.9,54.3,48.2,54.4,50.7,47.4,98,88,67,28.97,28.88,10,3,11,0.02
2013-6-5,66.7,57.5,43.7,52.9,48.7,42.6,96,74,52,28.97,28.91,15,5,15,0.00
2013-6-6,68.0,58.8,50.2,57.2,53.4,48.4,95,83,65,29.03,28.97,10,2,10,0.00
2013-6-7,73.9,61.9,48.0,60.8,55.6,47.2,97,81,59,29.00,28.91,9,3,10,0.00
2013-6-8,78.4,65.5,51.8,63.0,57.7,50.7,97,78,51,28.94,28.73,10,2,10,0.00
2013-6-9,78.1,64.6,54.1,65.5,58.3,52.6,96,82,49,28.76,28.58,13,3,13,0.62
2013-6-10,62.6,59.1,54.7,59.1,56.8,52.9,97,92,84,28.73,28.58,11,2,11,0.80
2013-6-11,70.5,60.6,50.4,55.6,50.9,46.5,96,73,45,28.91,28.73,16,5,16,0.00
2013-6-12,77.0,62.4,46.0,57.2,50.3,45.0,96,69,34,29.00,28.91,9,2,9,0.00
2013-6-13,83.7,67.4,48.4,61.0,55.1,46.9,95,68,41,29.00,28.79,9,2,10,0.00
2013-6-14,71.2,62.4,54.3,56.9,53.3,49.4,92,73,48,29.00,28.76,13,3,13,0.07
2013-6-15,77.2,63.7,48.4,61.7,55.3,46.7,95,76,49,28.94,28.79,12,2,12,0.00
2013-6-16,79.3,67.1,54.7,58.9,55.2,52.1,95,69,43,28.91,28.82,14,4,14,0.00
2013-6-17,86.0,70.2,54.0,68.1,60.6,51.7,94,74,52,28.91,28.79,12,4,12,0.00
2013-6-18,95.0,78.0,62.2,75.0,68.1,60.5,95,74,34,28.91,28.82,9,2,9,0.00
2013-6-19,91.8,78.3,63.7,75.8,68.7,62.2,95,75,48,28.91,28.76,15,4,15,0.00
2013-6-20,93.6,79.5,67.5,76.6,69.6,60.1,92,73,45,28.79,28.61,17,3,17,0.00
2013-6-21,79.0,69.6,62.4,62.5,60.6,58.5,94,74,54,28.88,28.70,16,5,17,0.19
2013-6-22,80.1,69.0,59.7,65.0,60.6,56.9,96,77,49,28.91,28.79,8,2,8,0.08
2013-6-23,75.4,67.2,57.4,63.2,58.4,50.6,96,75,55,28.88,28.76,14,4,14,0.11
2013-6-24,63.9,57.3,54.9,55.1,52.8,49.8,95,86,61,28.91,28.85,10,2,10,0.44
2013-6-25,56.3,54.3,50.2,54.0,51.9,47.9,95,92,83,29.03,28.85,17,6,18,1.84
2013-6-26,55.8,51.5,47.5,50.2,48.0,45.7,95,88,71,29.12,28.97,13,4,13,0.09
2013-6-27,61.9,54.0,47.3,51.4,47.6,45.7,95,80,56,29.12,29.03,7,1,7,0.00
2013-6-28,68.2,56.1,42.8,53.2,48.4,42.0,97,78,46,29.03,28.91,12,2,12,0.00
2013-6-29,68.7,57.6,45.5,54.2,50.3,44.4,97,78,56,28.97,28.82,13,4,13,0.05
2013-6-30,65.8,56.9,50.2,54.3,46.7,42.2,93,71,49,29.06,28.94,15,5,15,0.14
2013-7-1,76.6,62.9,48.0,55.6,51.2,45.8,94,68,42,29.00,28.88,10,3,11,0.00
2013-7-2,82.0,66.7,49.6,61.4,55.0,47.4,94,69,42,28.91,28.79,12,2,12,0.00
2013-7-3,78.3,65.4,54.9,67.4,59.3,52.6,94,82,58,28.85,28.73,12,2,12,0.55
2013-7-4,76.6,66.7,59.0,64.9,61.2,57.9,97,83,59,29.09,28.82,7,2,7,0.05
2013-7-5,75.6,66.4,58.8,63.9,60.7,57.4,97,83,62,29.24,29.09,9,2,9,0.00
2013-7-6,75.2,65.4,54.1,67.7,60.1,53.0,96,84,62,29.24,29.18,15,2,15,0.05
2013-7-7,77.7,66.9,54.0,61.2,56.9,52.8,96,73,48,29.24,29.18,12,3,12,0.00
2013-7-8,77.0,65.8,52.2,61.1,56.1,50.8,95,73,48,29.26,29.15,10,3,10,0.00
2013-7-9,81.3,67.8,51.8,63.4,57.6,50.4,96,73,46,29.18,28.97,13,3,13,0.00
2013-7-10,81.0,68.5,53.6,62.8,57.9,52.5,96,71,46,28.97,28.79,17,3,17,0.00
2013-7-11,65.1,59.8,53.8,55.6,51.5,49.2,85,75,62,28.94,28.85,12,3,12,0.00
2013-7-12,73.2,61.5,50.4,55.4,51.8,48.6,94,73,47,29.00,28.91,10,3,11,0.00
2013-7-13,73.4,61.7,46.9,57.5,52.3,45.9,96,74,50,29.00,28.94,10,2,10,0.00
2013-7-14,77.2,63.8,48.9,58.0,54.0,47.8,96,73,47,29.00,28.94,12,3,12,0.31
2013-7-15,72.7,63.6,52.3,57.4,52.9,46.9,93,70,44,29.06,28.94,15,4,15,0.00
2013-7-16,81.0,64.6,46.2,59.3,51.8,44.9,95,67,36,29.12,29.00,8,2,8,0.00
2013-7-17,82.2,68.1,50.7,61.0,54.4,48.9,94,65,37,29.06,29.00,14,3,14,0.00
2013-7-18,82.6,69.4,52.3,60.7,56.1,50.4,93,66,37,29.06,28.97,12,3,12,0.00
2013-7-19,83.1,70.5,54.5,63.7,57.2,52.5,94,66,40,29.03,28.88,13,3,13,0.00
2013-7-20,78.4,66.9,54.7,60.5,56.4,52.7,94,71,43,29.00,28.94,14,3,14,0.00
2013-7-21,82.0,67.9,51.3,59.8,54.1,49.6,94,65,36,29.06,28.97,12,3,12,0.00
2013-7-22,87.4,69.7,50.4,60.2,53.5,48.3,93,62,29,29.00,28.82,9,2,10,0.22
2013-7-23,87.8,71.7,52.9,60.8,53.4,47.6,91,58,26,28.85,28.76,12,3,12,0.00
2013-7-24,89.8,71.5,53.6,63.8,56.2,50.1,93,63,31,28.85,28.76,10,2,10,0.05
2013-7-25,84.6,72.2,61.9,64.9,62.8,60.4,96,74,49,28.88,28.85,10,3,10,0.01
2013-7-26,91.0,74.8,60.4,67.0,62.3,58.4,94,69,38,28.88,28.79,8,2,8,0.22
2013-7-27,97.5,79.4,61.0,68.1,62.0,58.6,93,60,30,28.82,28.67,9,2,9,0.17
2013-7-28,97.0,83.6,65.5,69.2,62.6,57.6,83,52,29,28.79,28.67,9,3,10,0.00
2013-7-29,86.4,75.1,64.0,67.9,64.7,61.8,94,72,50,28.85,28.61,21,6,21,0.99
2013-7-30,77.0,67.3,59.7,63.0,59.1,55.6,94,77,53,28.97,28.79,14,6,14,0.01
2013-7-31,78.4,67.9,58.5,63.6,59.3,56.8,96,76,55,29.00,28.91,14,4,14,0.00
2013-8-1,86.4,70.0,53.8,63.8,58.9,52.6,96,71,42,29.03,28.88,14,2,14,0.27
2013-8-2,93.2,76.1,55.9,68.4,60.3,54.2,94,63,32,28.94,28.82,11,2,11,0.00
2013-8-3,98.1,79.0,58.5,70.7,60.8,53.8,92,59,24,28.94,28.82,12,2,12,0.00
2013-8-4,87.3,74.7,64.6,68.4,65.0,60.0,92,74,47,29.06,28.91,20,3,20,1.71
2013-8-5,67.5,67.3,62.6,64.8,64.0,60.2,97,89,89,29.03,28.88,5,4,5,0.00
2013-8-6,90.0,78.9,60.4,71.2,65.9,59.0,96,67,45,28.88,28.73,8,2,8,0.00
2013-8-7,88.5,71.6,61.7,67.5,63.5,60.3,96,77,50,28.91,28.70,5,1,5,0.00
2013-8-8,76.6,73.4,62.2,67.8,65.8,60.1,94,78,68,28.91,28.67,6,2,6,0.00
2013-8-9,76.6,65.0,61.2,67.7,60.2,58.2,91,85,74,29.00,28.91,5,2,5,0.00
2013-8-10,74.5,63.1,52.7,61.6,56.9,51.9,97,81,61,29.00,28.88,12,3,12,0.09
2013-8-11,74.1,62.5,51.1,59.9,54.6,49.5,97,78,51,28.94,28.88,10,3,11,0.00
2013-8-12,79.7,62.5,45.9,60.9,53.1,44.8,96,75,43,28.97,28.76,7,1,7,0.00
2013-8-13,71.6,61.6,52.7,57.2,52.5,46.3,95,74,42,28.97,28.76,13,4,13,0.00
2013-8-14,70.9,58.4,45.9,52.6,48.7,44.5,96,73,42,29.09,28.97,13,2,13,0.00
2013-8-15,74.8,58.7,41.0,53.4,46.4,39.9,96,69,35,29.12,29.03,10,2,11,0.00
2013-8-16,81.1,63.7,48.2,58.4,49.6,45.1,90,64,34,29.06,28.91,9,2,10,0.00
2013-8-17,87.8,66.6,48.7,64.6,53.4,45.5,90,67,31,28.94,28.82,8,1,8,0.00
2013-8-18,87.4,70.0,53.8,67.0,59.3,51.8,93,72,40,28.88,28.79,10,1,10,0.00
2013-8-19,76.1,63.7,59.2,63.6,59.9,57.1,95,88,62,28.94,28.82,17,1,17,0.69
2013-8-20,68.4,58.8,51.1,57.9,54.9,50.0,97,87,67,29.20,28.94,12,2,12,0.00
2013-8-21,72.3,57.7,46.2,57.1,50.1,45.4,98,79,46,29.20,29.06,12,1,12,0.00
2013-8-22,75.6,57.6,44.1,58.1,50.3,42.7,96,79,46,29.09,28.97,7,1,7,0.00
2013-8-23,72.1,60.0,46.6,56.0,51.7,45.2,96,76,49,29.00,28.88,12,3,12,0.00
2013-8-24,75.7,63.6,50.7,58.5,54.5,49.1,95,74,52,28.94,28.73,13,3,13,0.00
2013-8-25,63.1,58.6,54.0,57.2,54.7,52.2,95,87,74,28.79,28.70,16,7,16,1.63
2013-8-26,63.0,58.5,56.1,59.2,56.3,54.6,96,92,79,28.88,28.73,14,6,14,0.55
2013-8-27,63.7,57.7,54.1,55.6,54.2,52.8,97,88,73,28.85,28.79,12,4,12,0.08
2013-8-28,66.4,59.6,52.5,58.2,55.4,51.4,96,87,69,28.97,28.79,8,1,8,0.23
2013-8-29,74.8,59.5,45.7,58.9,51.8,44.9,98,79,45,29.03,28.97,8,1,8,0.00
2013-8-30,77.5,60.2,45.3,59.4,52.3,44.5,97,78,42,29.03,28.94,8,1,8,0.00
2013-8-31,76.8,63.3,50.4,60.0,54.7,49.3,97,76,46,28.97,28.88,13,2,13,0.00
2013-9-1,65.1,57.5,46.4,56.7,49.7,43.6,94,77,48,29.09,28.94,13,3,13,0.29
2013-9-2,63.1,55.0,44.6,53.7,49.1,43.5,96,81,64,29.09,28.97,17,5,17,0.03
2013-9-3,68.9,63.6,59.9,60.6,57.4,53.7,93,80,72,29.18,28.97,14,5,14,0.00
2013-9-4,74.3,64.4,54.1,61.9,58.8,52.7,96,83,63,29.18,29.03,12,1,12,0.00
2013-9-5,76.5,62.1,50.5,62.7,56.2,49.4,97,83,57,29.06,28.88,9,2,9,0.00
2013-9-6,76.8,63.6,51.8,58.2,54.8,50.7,96,75,50,28.88,28.79,13,3,13,0.00
2013-9-7,79.7,64.2,50.0,60.6,54.6,48.2,94,73,47,28.97,28.85,8,2,8,0.00
2013-9-8,79.7,65.2,53.2,64.7,56.3,48.2,91,74,53,28.97,28.85,9,2,9,0.00
2013-9-9,68.7,59.9,45.1,60.5,54.2,43.5,96,83,53,28.94,28.73,16,4,16,0.31
2013-9-10,65.1,52.5,43.7,55.8,49.3,42.6,97,90,61,28.94,28.79,8,1,8,0.34
2013-9-11,61.5,53.6,46.9,50.1,48.4,46.1,97,83,65,28.85,28.76,13,3,13,0.00
2013-9-12,62.4,53.6,50.4,53.2,49.7,47.1,96,87,64,28.85,28.73,8,1,8,0.08
2013-9-13,63.9,53.9,48.9,55.8,50.9,48.0,97,90,73,28.94,28.85,10,1,10,0.03
2013-9-14,70.5,58.8,49.6,56.2,52.8,48.3,96,82,58,28.91,28.76,13,4,13,0.00
2013-9-15,69.1,60.7,55.4,60.5,57.2,54.0,96,89,72,28.79,28.61,9,1,9,0.05
2013-9-16,59.5,56.3,53.2,56.5,53.6,51.1,97,91,78,28.61,28.41,12,2,12,0.14
2013-9-17,57.2,48.4,38.8,52.1,45.0,37.4,97,89,65,28.58,28.38,17,3,17,0.14
2013-9-18,57.7,46.1,37.4,55.7,44.7,36.6,98,95,91,28.53,28.29,7,1,7,0.70
2013-9-19,57.9,49.0,41.7,51.4,45.8,40.1,97,90,65,28.79,28.47,13,2,13,0.12
2013-9-20,59.4,51.1,44.1,54.3,49.2,43.0,97,93,81,28.91,28.76,12,2,12,0.23
2013-9-21,59.2,53.8,47.7,54.2,50.8,46.6,97,90,76,29.20,28.91,10,2,10,0.00
2013-9-22,61.7,52.0,42.6,54.1,48.8,41.8,98,90,70,29.20,29.09,9,1,9,0.00
2013-9-23,65.7,57.7,52.9,56.3,52.7,50.7,93,84,65,29.09,28.94,9,3,9,0.00
2013-9-24,67.8,58.0,50.2,56.2,52.4,48.5,95,82,63,28.94,28.79,13,3,13,0.00
2013-9-25,64.6,54.9,46.2,56.1,51.6,45.1,97,89,72,28.82,28.67,8,2,8,0.00
2013-9-26,66.2,53.6,46.8,57.3,50.3,44.6,98,89,64,28.91,28.64,21,3,21,0.06
2013-9-27,59.0,46.0,34.7,46.1,40.9,33.7,97,84,58,28.94,28.85,8,2,8,0.00
2013-9-28,60.4,44.0,31.3,45.9,38.1,30.3,97,82,50,28.91,28.79,9,2,10,0.00
2013-9-29,58.3,47.6,36.0,44.1,40.6,34.9,96,78,58,28.85,28.76,17,6,17,0.00
2013-9-30,57.6,47.0,38.8,41.9,39.2,35.6,92,75,54,28.79,28.70,16,8,16,0.00
2013-10-1,54.9,41.7,29.3,41.7,34.9,28.0,96,79,51,28.91,28.76,12,3,12,0.00
2013-10-2,54.3,40.2,29.3,40.3,33.0,28.0,95,78,47,29.18,28.91,16,3,16,0.00
2013-10-3,53.2,40.3,30.9,35.6,32.2,28.8,94,75,50,29.24,29.15,14,4,14,0.00
2013-10-4,58.6,41.7,28.8,37.7,32.0,26.2,92,71,41,29.18,29.03,12,3,12,0.00
2013-10-5,57.9,43.4,30.9,42.7,36.4,28.9,93,78,53,29.06,28.91,9,2,9,0.00
2013-10-6,61.5,47.7,38.5,47.0,42.0,36.9,95,82,57,29.15,28.94,8,1,8,0.00
2013-10-7,55.6,45.6,36.9,48.0,42.3,35.3,96,89,72,29.20,29.15,6,1,6,0.00
2013-10-8,64.2,47.3,37.8,51.5,43.3,36.7,98,87,58,29.18,29.03,7,1,7,0.00
2013-10-9,56.3,47.1,37.2,50.9,44.7,36.4,98,91,78,29.06,28.76,5,1,5,0.00
2013-10-10,63.3,51.3,41.4,52.3,47.4,40.3,98,87,64,28.76,28.50,12,2,12,1.02
2013-10-11,51.4,45.5,37.2,50.6,44.5,36.4,97,96,94,28.94,28.64,10,2,10,0.58
2013-10-12,53.6,45.1,34.9,51.6,44.2,34.4,98,97,92,28.97,28.82,14,2,14,0.13
2013-10-13,58.6,46.6,36.1,47.8,42.8,35.1,98,88,63,29.03,28.88,10,3,10,0.00
2013-10-14,63.1,45.3,34.5,51.0,42.1,33.8,98,89,61,29.03,28.91,7,1,7,0.00
2013-10-15,58.1,47.8,39.9,50.6,44.7,39.1,98,90,72,28.91,28.58,12,2,12,0.02
2013-10-16,54.0,46.1,36.0,46.2,42.6,34.9,96,88,72,28.85,28.58,12,3,12,0.01
2013-10-17,59.2,45.9,32.2,49.7,42.2,31.4,98,88,70,28.85,28.73,15,4,15,0.12
2013-10-18,54.3,49.7,43.9,49.4,44.4,41.1,93,82,67,29.00,28.73,13,4,13,0.00
2013-10-19,61.0,45.0,32.4,48.5,41.0,31.6,98,87,62,29.00,28.85,9,2,9,0.00
2013-10-20,66.6,53.2,41.5,56.4,49.6,40.5,97,88,69,28.91,28.85,5,0,5,0.39
2013-10-21,68.2,56.2,48.0,56.8,52.5,47.4,98,88,65,28.94,28.88,12,2,12,0.00
2013-10-22,69.4,55.4,44.8,58.4,51.1,44.0,98,86,66,28.94,28.76,6,1,6,0.00
2013-10-23,66.2,57.0,50.4,57.3,53.6,49.0,96,89,73,28.82,28.70,8,1,8,0.00
2013-10-24,67.3,56.9,45.7,55.1,51.7,44.3,96,84,63,29.00,28.82,12,3,12,0.02
2013-10-25,61.5,50.3,40.5,56.3,48.5,39.7,98,94,81,29.00,28.88,4,0,4,0.00
2013-10-26,70.5,56.1,47.8,58.6,52.1,47.0,98,88,66,28.91,28.85,13,2,13,0.00
2013-10-27,66.9,56.8,48.0,56.3,49.7,45.8,97,79,58,28.85,28.64,17,5,17,0.00
2013-10-28,74.1,61.8,53.2,53.6,48.1,42.9,77,62,34,28.76,28.53,16,4,16,0.00
2013-10-29,60.8,53.6,45.9,48.5,44.9,42.2,90,73,62,28.94,28.67,15,5,15,0.00
2013-10-30,55.9,45.7,32.0,43.9,39.4,29.9,94,80,55,29.20,28.91,16,3,17,0.00
2013-10-31,53.8,38.7,27.5,39.9,32.8,26.3,96,81,54,29.20,29.06,7,1,7,0.00
2013-11-1,52.2,45.9,37.9,43.8,40.6,36.4,95,82,66,29.03,28.82,9,2,9,0.00
2013-11-2,57.9,49.5,39.2,52.7,46.4,37.9,96,89,79,28.82,28.56,12,2,12,0.03
2013-11-3,57.6,50.6,44.6,52.1,45.0,38.0,89,81,73,28.64,28.47,17,6,17,0.08
2013-11-4,55.9,48.5,41.4,43.0,39.0,34.9,79,70,54,28.61,28.17,16,4,16,0.00
2013-11-5,53.2,43.2,31.8,44.5,38.0,29.8,94,82,70,28.44,28.20,12,4,12,0.01
2013-11-6,50.5,44.9,34.9,44.7,39.9,33.2,95,83,64,28.61,28.26,14,5,14,0.17
2013-11-7,63.0,55.1,46.0,53.0,49.8,44.7,96,83,70,28.73,28.56,17,8,17,0.05
2013-11-8,62.8,55.6,49.6,51.6,49.2,45.7,92,79,65,28.73,28.61,15,3,15,0.00
2013-11-9,57.7,48.4,35.8,49.7,43.8,34.2,94,84,73,28.76,28.58,13,4,13,0.17
2013-11-10,49.8,41.6,33.6,43.9,38.5,32.3,96,89,73,28.85,28.47,16,2,16,0.38
2013-11-11,44.1,40.5,37.6,39.3,37.7,36.3,96,90,77,29.32,28.85,8,1,8,0.00
2013-11-12,47.5,37.0,29.3,36.9,32.6,28.0,96,85,63,29.32,29.09,8,1,8,0.00
2013-11-13,42.3,34.0,28.0,38.8,32.4,27.2,97,94,86,29.26,29.09,6,1,6,0.00
2013-11-14,37.0,32.6,27.3,35.5,31.5,26.6,98,96,92,29.20,28.94,7,1,7,0.00
2013-11-15,39.0,36.3,33.3,37.7,35.1,32.0,96,95,94,29.24,28.97,7,1,7,0.08
2013-11-16,48.7,39.7,31.8,42.3,37.4,31.1,97,92,76,29.26,29.15,7,1,7,0.00
2013-11-17,37.6,34.5,30.9,37.1,34.0,30.2,98,98,97,29.18,28.94,7,3,7,0.00
2013-11-18,42.8,40.2,37.4,42.3,39.0,36.9,99,96,88,28.94,28.67,7,2,7,0.00
2013-11-19,45.9,43.7,40.8,43.2,41.0,39.0,94,90,87,28.70,28.44,8,3,8,0.00
2013-11-20,44.4,41.0,37.4,42.2,39.2,35.1,97,93,89,28.50,28.35,12,3,12,0.19
2013-11-21,42.3,39.5,37.4,41.2,37.1,33.7,96,91,85,28.47,28.35,12,5,12,0.00
2013-11-22,46.6,43.8,42.1,42.2,40.7,38.8,96,89,76,28.67,28.41,12,5,12,0.00
2013-11-23,44.2,42.0,40.1,41.3,39.5,38.7,95,91,84,28.76,28.64,10,5,10,0.00
2013-11-24,43.9,39.9,33.3,42.0,36.2,25.5,93,87,72,28.94,28.73,17,7,17,0.02
2013-11-25,36.3,30.8,25.2,27.8,24.6,21.2,89,78,69,29.12,28.94,14,4,14,0.00
2013-11-26,35.6,30.3,21.4,28.4,25.7,19.7,93,83,70,29.29,29.12,12,3,12,0.00
2013-11-27,35.6,25.1,16.5,25.9,20.9,14.9,95,85,65,29.32,29.24,9,2,10,0.00
2013-11-28,35.2,33.3,30.4,32.2,28.4,22.9,93,82,72,29.24,29.09,15,8,15,0.00
2013-11-29,40.3,37.2,34.3,34.6,33.3,32.3,93,86,80,29.12,28.67,15,7,15,0.01
2013-11-30,40.3,37.8,35.2,35.5,34.2,32.3,92,87,82,29.09,28.64,16,6,16,0.03
2013-12-1,42.1,37.8,34.3,36.1,33.8,32.2,94,86,73,29.18,29.09,10,3,10,0.00
2013-12-2,43.2,35.4,27.5,36.8,32.4,26.3,97,89,72,29.41,29.18,9,2,9,0.00
2013-12-3,37.0,28.2,22.6,30.7,25.7,21.4,95,91,73,29.38,29.18,6,1,6,0.00
2013-12-4,36.3,28.5,18.0,32.2,25.9,16.5,96,90,82,29.18,29.00,15,4,15,0.00
2013-12-5,40.8,36.6,29.5,36.6,32.1,28.1,96,84,75,29.12,28.47,20,8,20,0.05
2013-12-6,39.6,35.0,31.6,36.6,27.0,23.8,91,73,61,28.76,28.50,23,12,23,0.06
2013-12-7,37.2,33.9,31.1,32.5,27.5,22.6,87,77,66,29.03,28.76,17,9,17,0.01
2013-12-8,42.1,39.4,36.0,37.1,35.3,32.5,89,85,80,29.09,29.00,15,7,15,0.00
2013-12-9,44.1,43.0,41.5,40.3,39.0,37.0,88,85,82,29.26,29.00,18,9,19,0.06
2013-12-10,48.2,44.1,38.5,44.3,41.5,36.9,96,91,84,29.41,29.26,7,1,7,0.00
2013-12-11,43.0,41.4,39.2,41.1,39.1,37.6,95,91,87,29.41,29.35,6,1,6,0.00
2013-12-12,39.0,35.0,32.4,37.7,34.3,31.9,98,97,95,29.35,29.20,7,1,7,0.01
2013-12-13,33.3,32.1,31.3,32.8,31.8,30.8,99,99,98,29.20,29.09,5,1,5,0.00
2013-12-14,37.9,34.5,30.7,35.2,32.9,30.5,99,94,88,29.26,29.09,13,4,13,0.00
2013-12-15,41.0,38.1,32.4,36.1,33.5,29.5,93,83,76,29.29,29.24,16,6,16,0.00
2013-12-16,50.7,33.2,25.9,35.2,29.0,24.4,95,85,53,29.32,29.24,2,0,2,0.00
2013-12-17,37.6,27.8,21.7,32.0,25.6,20.5,96,92,76,29.26,29.18,5,1,5,0.01
2013-12-18,31.1,27.6,23.4,28.0,26.1,22.1,97,94,88,29.20,28.97,6,1,6,0.00
2013-12-19,31.5,29.3,24.1,28.6,26.5,22.9,96,89,85,28.97,28.79,8,2,8,0.00
2013-12-20,36.9,33.5,31.3,34.2,30.5,28.4,96,89,81,29.29,28.88,9,1,9,0.00
2013-12-21,41.9,32.8,26.6,34.8,30.4,25.4,97,91,74,29.35,29.15,7,1,7,0.00
2013-12-22,50.4,38.6,25.9,43.4,35.5,24.9,96,89,72,29.15,28.94,16,2,16,0.02
2013-12-23,51.4,46.8,43.2,42.7,39.9,37.9,82,77,71,29.00,28.79,16,4,16,0.00
2013-12-24,45.3,37.2,31.3,38.2,33.3,29.8,96,86,74,28.79,28.47,8,2,8,0.00
2013-12-25,44.4,36.8,31.8,39.4,35.0,30.8,97,93,82,28.44,28.20,6,2,6,0.00
2013-12-26,45.9,37.2,32.5,45.1,36.3,31.8,98,96,89,28.44,28.14,6,1,6,0.02
2013-12-27,47.8,41.6,34.7,40.3,37.4,32.1,97,85,69,28.67,28.44,13,3,13,0.06
2013-12-28,39.0,34.3,29.1,36.3,32.4,27.9,97,93,88,28.64,28.56,7,1,7,0.00
2013-12-29,44.1,39.0,32.2,38.5,34.6,30.0,98,85,72,29.09,28.61,13,4,13,0.00
2013-12-30,42.3,30.5,22.6,35.4,28.1,21.2,97,91,70,29.24,29.09,4,0,4,0.01
2013-12-31,34.3,27.7,18.7,32.8,26.3,17.5,95,94,93,29.12,28.88,5,0,5,0.00
2014-1-1,37.9,35.0,30.4,34.1,32.2,27.9,95,89,83,28.88,28.73,6,1,6,0.00
2014-1-2,38.5,35.1,31.1,33.9,31.7,28.3,94,88,81,28.76,28.64,7,1,7,0.01